createdAt,value
2018-05-04T00:00:31.631Z,66.18
2018-05-04T00:02:59.164Z,66.67
2018-05-04T00:05:26.698Z,67.65
2018-05-04T00:07:54.243Z,68.73
2018-05-04T00:10:21.918Z,67.63
2018-05-04T00:12:49.481Z,67.03
2018-05-04T00:15:17.003Z,67.56
2018-05-04T00:17:44.943Z,68.51
2018-05-04T00:20:12.472Z,68.07
2018-05-04T00:22:40.002Z,68.84
2018-05-04T00:25:07.566Z,69.29
2018-05-04T00:27:35.096Z,70.01
2018-05-04T00:30:02.646Z,69.87
2018-05-04T00:32:30.170Z,69.05
2018-05-04T00:34:57.719Z,68.31
2018-05-04T00:37:25.247Z,67.99
2018-05-04T00:39:52.826Z,67.88
2018-05-04T00:42:20.349Z,68.11
2018-05-04T00:44:47.880Z,69.39
2018-05-04T00:47:15.623Z,69.32
2018-05-04T00:49:43.144Z,68.48
2018-05-04T00:52:10.670Z,68.40
2018-05-04T00:54:38.227Z,69.79
2018-05-04T00:57:05.764Z,69.64
2018-05-04T00:59:33.357Z,69.61
2018-05-04T01:02:00.882Z,68.88
2018-05-04T01:04:28.402Z,68.84
2018-05-04T01:06:56.316Z,70.64
2018-05-04T01:09:23.835Z,71.33
2018-05-04T01:11:51.351Z,71.70
2018-05-04T01:14:18.899Z,71.99
2018-05-04T01:16:46.419Z,72.58
2018-05-04T01:19:14.246Z,71.76
2018-05-04T01:21:41.795Z,71.77
2018-05-04T01:24:09.335Z,73.64
2018-05-04T01:26:36.895Z,74.03
2018-05-04T01:29:04.427Z,74.53
2018-05-04T01:31:32.086Z,74.06
2018-05-04T01:33:59.630Z,73.90
2018-05-04T01:36:27.182Z,73.45
2018-05-04T01:38:54.751Z,73.50
2018-05-04T01:41:22.272Z,74.25
2018-05-04T01:43:49.832Z,74.20
2018-05-04T01:46:17.357Z,74.10
2018-05-04T01:48:44.883Z,73.62
2018-05-04T01:51:12.439Z,73.98
2018-05-04T01:53:39.967Z,73.78
2018-05-04T01:56:07.517Z,74.10
2018-05-04T01:58:35.071Z,74.33
2018-05-04T02:01:02.600Z,74.64
2018-05-04T02:03:30.590Z,74.28
2018-05-04T02:05:58.120Z,73.96
2018-05-04T02:08:25.647Z,74.28
2018-05-04T02:10:53.355Z,73.69
2018-05-04T02:13:20.884Z,73.89
2018-05-04T02:15:48.424Z,73.60
2018-05-04T02:18:15.982Z,73.94
2018-05-04T02:20:43.544Z,74.25
2018-05-04T02:23:11.089Z,74.00
2018-05-04T02:25:38.682Z,74.73
2018-05-04T02:28:06.202Z,74.26
2018-05-04T02:30:33.740Z,73.83
2018-05-04T02:33:01.279Z,74.00
2018-05-04T02:35:28.848Z,73.48
2018-05-04T02:37:56.491Z,73.51
2018-05-04T02:40:24.029Z,73.61
2018-05-04T02:42:51.605Z,74.22
2018-05-04T02:45:19.135Z,74.66
2018-05-04T02:47:46.658Z,74.87
2018-05-04T02:50:14.217Z,74.59
2018-05-04T02:52:41.752Z,74.39
2018-05-04T02:55:09.307Z,75.11
2018-05-04T02:57:36.840Z,74.78
2018-05-04T03:00:04.438Z,75.40
2018-05-04T03:02:31.968Z,75.81
2018-05-04T03:04:59.500Z,75.59
2018-05-04T03:07:27.045Z,75.83
2018-05-04T03:09:54.575Z,76.52
2018-05-04T03:12:22.551Z,75.57
2018-05-04T03:14:50.075Z,75.56
2018-05-04T03:17:17.607Z,75.86
2018-05-04T03:19:45.562Z,76.30
2018-05-04T03:22:13.095Z,76.40
2018-05-04T03:24:40.628Z,76.92
2018-05-04T03:27:08.224Z,76.91
2018-05-04T03:29:35.756Z,76.43
2018-05-04T03:32:03.287Z,76.01
2018-05-04T03:34:30.842Z,76.26
2018-05-04T03:36:58.385Z,76.09
2018-05-04T03:39:26.667Z,76.06
2018-05-04T03:41:54.233Z,76.21
2018-05-04T03:44:21.763Z,76.12
2018-05-04T03:46:49.332Z,75.83
2018-05-04T03:49:16.870Z,75.65
2018-05-04T03:51:44.432Z,75.48
2018-05-04T03:54:11.962Z,75.87
2018-05-04T03:56:39.670Z,75.40
2018-05-04T03:59:19.146Z,75.51
2018-05-04T04:04:50.843Z,75.56
2018-05-04T04:07:18.365Z,75.37
2018-05-04T04:09:45.920Z,75.63
2018-05-04T04:12:13.447Z,75.11
2018-05-04T04:14:41.133Z,74.70
2018-05-04T04:17:08.659Z,75.27
2018-05-04T04:19:36.192Z,75.13
2018-05-04T04:22:03.749Z,74.75
2018-05-04T04:24:31.291Z,74.89
2018-05-04T04:26:58.986Z,74.96
2018-05-04T04:29:26.514Z,74.62
2018-05-04T04:31:54.054Z,74.62
2018-05-04T04:34:22.043Z,74.69
2018-05-04T04:36:49.567Z,74.56
2018-05-04T04:39:17.092Z,74.62
2018-05-04T04:41:44.844Z,74.57
2018-05-04T04:44:12.367Z,74.39
2018-05-04T04:46:39.891Z,74.25
2018-05-04T04:49:07.453Z,74.19
2018-05-04T04:51:34.981Z,73.95
2018-05-04T04:54:02.709Z,73.75
2018-05-04T04:56:30.378Z,73.33
2018-05-04T04:58:57.914Z,72.92
2018-05-04T05:01:25.451Z,72.75
2018-05-04T05:03:53.006Z,72.60
2018-05-04T05:06:20.535Z,72.20
2018-05-04T05:08:48.063Z,71.85
2018-05-04T05:11:15.629Z,71.55
2018-05-04T05:13:43.154Z,72.19
2018-05-04T05:16:10.686Z,71.50
2018-05-04T05:18:38.239Z,70.58
2018-05-04T05:21:05.900Z,70.10
2018-05-04T05:23:33.478Z,70.24
2018-05-04T05:26:01.031Z,71.10
2018-05-04T05:28:28.578Z,70.07
2018-05-04T05:30:56.107Z,68.79
2018-05-04T05:33:23.690Z,66.52
2018-05-04T05:35:51.227Z,65.28
2018-05-04T05:38:18.741Z,62.15
2018-05-04T05:40:46.800Z,61.37
2018-05-04T05:43:14.333Z,59.47
2018-05-04T05:45:41.858Z,60.39
2018-05-04T05:48:09.424Z,60.24
2018-05-04T05:50:36.951Z,59.63
2018-05-04T05:53:04.502Z,58.98
2018-05-04T05:55:32.059Z,60.96
2018-05-04T05:57:59.664Z,57.44
2018-05-04T06:00:27.187Z,57.07
2018-05-04T06:02:54.787Z,59.66
2018-05-04T06:05:22.320Z,56.53
2018-05-04T06:07:49.853Z,57.85
2018-05-04T06:10:17.531Z,56.13
2018-05-04T06:12:45.075Z,56.74
2018-05-04T06:15:12.612Z,55.48
2018-05-04T06:17:40.159Z,55.18
2018-05-04T06:20:07.702Z,54.92
2018-05-04T06:22:35.266Z,56.07
2018-05-04T06:25:02.819Z,56.86
2018-05-04T06:27:30.583Z,58.34
2018-05-04T06:29:58.106Z,56.35
2018-05-04T06:32:25.636Z,58.23
2018-05-04T06:34:53.186Z,56.62
2018-05-04T06:37:20.715Z,55.46
2018-05-04T06:39:48.464Z,54.70
2018-05-04T06:42:15.986Z,55.73
2018-05-04T06:44:43.507Z,56.36
2018-05-04T06:47:11.095Z,56.97
2018-05-04T06:49:38.625Z,57.97
2018-05-04T06:52:06.155Z,57.89
2018-05-04T06:54:34.094Z,59.36
2018-05-04T06:57:01.615Z,60.65
2018-05-04T06:59:29.214Z,61.76
2018-05-04T07:01:56.731Z,61.16
2018-05-04T07:04:24.303Z,62.53
2018-05-04T07:06:51.826Z,61.26
2018-05-04T07:09:19.350Z,61.58
2018-05-04T07:11:46.915Z,62.13
2018-05-04T07:14:14.448Z,60.74
2018-05-04T07:16:42.003Z,60.94
2018-05-04T07:19:09.985Z,60.20
2018-05-04T07:21:37.523Z,60.12
2018-05-04T07:24:05.068Z,59.45
2018-05-04T07:26:32.738Z,59.63
2018-05-04T07:29:00.274Z,59.86
2018-05-04T07:31:27.799Z,60.31
2018-05-04T07:33:55.381Z,60.06
2018-05-04T07:36:22.909Z,59.40
2018-05-04T07:38:50.431Z,60.06
2018-05-04T07:41:18.343Z,58.66
2018-05-04T07:43:45.879Z,59.18
2018-05-04T07:46:13.416Z,57.36
2018-05-04T07:48:41.040Z,57.44
2018-05-04T07:51:08.516Z,58.67
2018-05-04T07:53:36.431Z,57.04
2018-05-04T07:56:03.960Z,57.36
2018-05-04T07:58:31.494Z,57.76
2018-05-04T08:00:59.387Z,56.69
2018-05-04T08:03:26.933Z,56.76
2018-05-04T08:05:54.459Z,54.67
2018-05-04T08:08:22.009Z,54.09
2018-05-04T08:10:49.536Z,56.87
2018-05-04T08:13:17.132Z,56.00
2018-05-04T08:15:44.658Z,53.96
2018-05-04T08:18:12.174Z,53.93
2018-05-04T08:20:39.715Z,53.65
2018-05-04T08:23:07.238Z,52.31
2018-05-04T08:25:35.139Z,52.01
2018-05-04T08:28:02.664Z,50.77
2018-05-04T08:30:30.206Z,50.02
2018-05-04T08:32:57.754Z,47.82
2018-05-04T08:35:25.302Z,49.25
2018-05-04T08:37:52.852Z,48.90
2018-05-04T08:40:20.400Z,50.36
2018-05-04T08:42:47.970Z,50.30
2018-05-04T08:45:15.495Z,50.17
2018-05-04T08:47:43.081Z,49.58
2018-05-04T08:50:10.611Z,48.94
2018-05-04T08:52:38.149Z,49.36
2018-05-04T08:55:06.027Z,50.34
2018-05-04T08:57:33.551Z,49.08
2018-05-04T09:00:01.074Z,48.60
2018-05-04T09:02:28.636Z,48.59
2018-05-04T09:04:56.175Z,48.16
2018-05-04T09:07:23.731Z,48.66
2018-05-04T09:09:51.250Z,48.14
2018-05-04T09:12:18.850Z,49.76
2018-05-04T09:14:46.381Z,48.33
2018-05-04T09:17:13.919Z,48.13
2018-05-04T09:19:41.471Z,48.54
2018-05-04T09:22:09.033Z,48.28
2018-05-04T09:24:36.993Z,47.17
2018-05-04T09:27:04.527Z,48.21
2018-05-04T09:29:32.047Z,47.16
2018-05-04T09:31:59.595Z,48.09
2018-05-04T09:34:27.119Z,47.49
2018-05-04T09:36:54.654Z,48.72
2018-05-04T09:39:22.467Z,48.18
2018-05-04T09:41:49.984Z,47.79
2018-05-04T09:44:17.506Z,48.38
2018-05-04T09:46:45.055Z,47.65
2018-05-04T09:49:12.588Z,49.19
2018-05-04T09:51:40.499Z,48.02
2018-05-04T09:54:08.028Z,47.05
2018-05-04T09:56:35.584Z,47.48
2018-05-04T09:59:03.135Z,48.47
2018-05-04T10:01:30.663Z,47.97
2018-05-04T10:03:58.268Z,47.04
2018-05-04T10:06:25.811Z,47.54
2018-05-04T10:08:53.357Z,46.49
2018-05-04T10:11:20.913Z,45.92
2018-05-04T10:13:48.444Z,45.80
2018-05-04T10:16:15.992Z,46.44
2018-05-04T10:18:43.553Z,46.26
2018-05-04T10:21:11.119Z,45.71
2018-05-04T10:23:38.652Z,44.77
2018-05-04T10:26:06.618Z,45.26
2018-05-04T10:28:34.159Z,43.87
2018-05-04T10:31:01.694Z,44.84
2018-05-04T10:33:29.638Z,44.11
2018-05-04T10:35:57.173Z,44.66
2018-05-04T10:38:24.717Z,44.11
2018-05-04T10:40:52.303Z,45.93
2018-05-04T10:43:19.817Z,44.83
2018-05-04T10:45:47.338Z,42.72
2018-05-04T10:48:15.312Z,43.86
2018-05-04T10:50:42.859Z,44.25
2018-05-04T10:53:10.524Z,43.58
2018-05-04T10:55:38.225Z,44.18
2018-05-04T10:58:05.767Z,43.35
2018-05-04T11:00:33.297Z,42.56
2018-05-04T11:03:00.842Z,43.92
2018-05-04T11:05:28.376Z,43.12
2018-05-04T11:07:55.930Z,41.66
2018-05-04T11:10:23.473Z,40.21
2018-05-04T11:12:51.038Z,42.61
2018-05-04T11:15:18.600Z,43.67
2018-05-04T11:17:46.127Z,42.86
2018-05-04T11:20:14.088Z,42.44
2018-05-04T11:22:41.622Z,42.09
2018-05-04T11:25:09.155Z,42.28
2018-05-04T11:27:36.698Z,41.84
2018-05-04T11:30:04.658Z,43.86
2018-05-04T11:32:32.183Z,42.73
2018-05-04T11:34:59.724Z,42.72
2018-05-04T11:37:27.299Z,42.87
2018-05-04T11:39:54.831Z,42.68
2018-05-04T11:42:22.367Z,42.95
2018-05-04T11:44:49.920Z,41.43
2018-05-04T11:47:17.479Z,43.56
2018-05-04T11:49:45.031Z,42.31
2018-05-04T11:52:12.579Z,43.09
2018-05-04T11:54:40.137Z,43.78
2018-05-04T11:57:07.676Z,44.63
2018-05-04T11:59:35.271Z,44.28
2018-05-04T12:02:02.819Z,42.64
2018-05-04T12:04:30.353Z,43.41
2018-05-04T12:06:57.932Z,42.76
2018-05-04T12:09:25.464Z,42.19
2018-05-04T12:11:52.997Z,42.45
2018-05-04T12:14:20.544Z,42.89
2018-05-04T12:16:48.072Z,44.88
2018-05-04T12:19:15.803Z,42.72
2018-05-04T12:21:43.345Z,41.83
2018-05-04T12:24:10.883Z,41.27
2018-05-04T12:26:38.442Z,42.39
2018-05-04T12:29:05.965Z,41.50
2018-05-04T12:31:33.566Z,41.16
2018-05-04T12:34:01.152Z,40.81
2018-05-04T12:36:28.647Z,41.46
2018-05-04T12:38:56.219Z,41.80
2018-05-04T12:41:23.751Z,41.91
2018-05-04T12:43:51.283Z,41.63
2018-05-04T12:46:18.835Z,41.67
2018-05-04T12:48:46.370Z,40.37
2018-05-04T12:51:13.929Z,40.75
2018-05-04T12:53:41.496Z,39.92
2018-05-04T12:56:09.213Z,41.38
2018-05-04T12:58:36.737Z,40.02
2018-05-04T13:01:04.290Z,39.66
2018-05-04T13:03:31.867Z,40.60
2018-05-04T13:05:59.404Z,40.03
2018-05-04T13:08:26.936Z,39.51
2018-05-04T13:10:54.487Z,38.90
2018-05-04T13:13:22.043Z,40.47
2018-05-04T13:15:49.603Z,38.88
2018-05-04T13:18:17.145Z,39.72
2018-05-04T13:20:44.701Z,39.68
2018-05-04T13:23:12.233Z,36.22
2018-05-04T13:25:39.795Z,40.73
2018-05-04T13:28:07.966Z,38.76
2018-05-04T13:30:35.488Z,38.39
2018-05-04T13:33:03.015Z,38.15
2018-05-04T13:35:30.619Z,39.30
2018-05-04T13:37:58.151Z,38.74
2018-05-04T13:40:25.703Z,38.30
2018-05-04T13:42:53.280Z,39.50
2018-05-04T13:45:20.816Z,38.71
2018-05-04T13:47:48.444Z,38.26
2018-05-04T13:50:15.931Z,38.22
2018-05-04T13:52:43.488Z,37.70
2018-05-04T13:55:11.474Z,37.64
2018-05-04T13:57:39.014Z,38.17
2018-05-04T14:00:06.683Z,38.60
2018-05-04T14:02:34.271Z,38.99
2018-05-04T14:05:01.836Z,38.48
2018-05-04T14:07:29.429Z,38.04
2018-05-04T14:09:56.952Z,38.56
2018-05-04T14:12:24.477Z,38.99
2018-05-04T14:14:52.031Z,38.16
2018-05-04T14:17:19.566Z,37.44
2018-05-04T14:19:47.123Z,37.96
2018-05-04T14:22:14.651Z,37.39
2018-05-04T14:24:42.608Z,37.93
2018-05-04T14:27:10.147Z,37.45
2018-05-04T14:29:37.677Z,38.77
2018-05-04T14:32:05.234Z,39.97
2018-05-04T14:34:32.771Z,38.74
2018-05-04T14:37:00.322Z,38.71
2018-05-04T14:39:27.857Z,37.97
2018-05-04T14:41:55.403Z,38.68
2018-05-04T14:44:22.957Z,37.85
2018-05-04T14:46:50.529Z,38.82
2018-05-04T14:49:18.118Z,39.04
2018-05-04T14:51:45.702Z,38.90
2018-05-04T14:54:13.267Z,39.52
2018-05-04T14:56:41.016Z,39.68
2018-05-04T14:59:08.550Z,38.43
2018-05-04T15:01:36.079Z,38.54
2018-05-04T15:04:04.108Z,39.01
2018-05-04T15:06:31.605Z,38.43
2018-05-04T15:08:59.160Z,38.20
2018-05-04T15:11:26.716Z,39.23
2018-05-04T15:13:54.242Z,38.48
2018-05-04T15:16:21.802Z,38.71
2018-05-04T15:18:49.403Z,38.63
2018-05-04T15:21:16.968Z,38.44
2018-05-04T15:23:44.511Z,39.06
2018-05-04T15:26:12.059Z,38.48
2018-05-04T15:28:39.624Z,38.07
2018-05-04T15:31:07.195Z,38.35
2018-05-04T15:33:34.743Z,37.73
2018-05-04T15:36:02.280Z,37.66
2018-05-04T15:38:30.681Z,37.67
2018-05-04T15:40:58.216Z,38.15
2018-05-04T15:43:25.771Z,37.76
2018-05-04T15:45:53.321Z,37.79
2018-05-04T15:48:26.464Z,38.26
2018-05-04T15:50:59.592Z,37.69
2018-05-04T15:53:27.279Z,38.17
2018-05-04T15:55:54.802Z,37.48
2018-05-04T15:58:22.326Z,37.96
2018-05-04T16:00:49.894Z,37.40
2018-05-04T16:03:17.419Z,37.38
2018-05-04T16:05:44.973Z,37.29
2018-05-04T16:08:12.531Z,37.15
2018-05-04T16:10:40.073Z,36.56
2018-05-04T16:13:07.973Z,36.53
2018-05-04T16:15:35.502Z,36.96
2018-05-04T16:18:03.031Z,36.11
2018-05-04T16:20:30.583Z,36.61
2018-05-04T16:22:58.239Z,36.39
2018-05-04T16:25:25.766Z,36.87
2018-05-04T16:27:53.282Z,36.46
2018-05-04T16:30:21.290Z,36.29
2018-05-04T16:32:48.831Z,36.50
2018-05-04T16:35:16.352Z,36.79
2018-05-04T16:37:43.911Z,36.39
2018-05-04T16:40:11.444Z,36.77
2018-05-04T16:42:38.993Z,36.84
2018-05-04T16:45:06.571Z,35.80
2018-05-04T16:47:34.505Z,36.52
2018-05-04T16:50:02.036Z,36.43
2018-05-04T16:52:29.629Z,35.95
2018-05-04T16:54:57.198Z,36.09
2018-05-04T16:57:24.757Z,36.49
2018-05-04T16:59:52.323Z,36.14
2018-05-04T17:02:19.861Z,36.13
2018-05-04T17:04:47.421Z,36.84
2018-05-04T17:07:14.996Z,36.45
2018-05-04T17:09:42.534Z,36.42
2018-05-04T17:12:10.074Z,36.63
2018-05-04T17:14:37.657Z,36.98
2018-05-04T17:17:05.213Z,37.21
2018-05-04T17:19:32.735Z,37.43
2018-05-04T17:22:00.332Z,37.89
2018-05-04T17:24:27.912Z,38.12
2018-05-04T17:26:55.459Z,38.58
2018-05-04T17:29:23.044Z,38.83
2018-05-04T17:31:50.567Z,38.69
2018-05-04T17:34:18.119Z,38.90
2018-05-04T17:36:45.642Z,39.25
2018-05-04T17:39:13.604Z,39.46
2018-05-04T17:41:41.133Z,38.85
2018-05-04T17:44:08.657Z,39.66
2018-05-04T17:46:36.222Z,38.92
2018-05-04T17:49:03.773Z,38.77
2018-05-04T17:51:31.332Z,39.24
2018-05-04T17:53:58.859Z,38.77
2018-05-04T17:56:26.431Z,39.19
2018-05-04T17:58:54.110Z,38.79
2018-05-04T18:01:21.635Z,38.71
2018-05-04T18:03:49.167Z,39.05
2018-05-04T18:06:16.699Z,38.81
2018-05-04T18:08:44.260Z,38.24
2018-05-04T18:11:11.788Z,38.12
2018-05-04T18:13:39.340Z,37.93
2018-05-04T18:16:06.896Z,38.59
2018-05-04T18:18:34.450Z,38.85
2018-05-04T18:21:02.006Z,38.63
2018-05-04T18:23:29.531Z,39.28
2018-05-04T18:25:57.085Z,40.00
2018-05-04T18:28:24.642Z,40.52
2018-05-04T18:30:52.173Z,41.38
2018-05-04T18:33:19.723Z,41.67
2018-05-04T18:35:47.242Z,42.45
2018-05-04T18:38:14.855Z,42.35
2018-05-04T18:40:42.367Z,42.85
2018-05-04T18:43:09.886Z,43.44
2018-05-04T18:45:37.582Z,43.50
2018-05-04T18:48:05.115Z,43.73
2018-05-04T18:50:32.644Z,44.29
2018-05-04T18:53:00.235Z,44.40
2018-05-04T18:55:27.775Z,45.10
2018-05-04T18:57:55.379Z,45.31
2018-05-04T19:00:22.902Z,45.77
2018-05-04T19:02:56.073Z,46.04
2018-05-04T19:05:23.593Z,46.47
2018-05-04T19:07:51.115Z,46.68
2018-05-04T19:10:18.672Z,46.96
2018-05-04T19:12:46.195Z,47.32
2018-05-04T19:15:13.759Z,47.63
2018-05-04T19:17:41.288Z,47.76
2018-05-04T19:20:08.835Z,48.00
2018-05-04T19:22:36.363Z,48.37
2018-05-04T19:25:03.960Z,49.08
2018-05-04T19:27:31.488Z,49.80
2018-05-04T19:29:59.059Z,49.86
2018-05-04T19:32:26.607Z,50.27
2018-05-04T19:34:54.130Z,51.11
2018-05-04T19:37:21.683Z,51.87
2018-05-04T19:39:49.242Z,52.26
2018-05-04T19:42:16.787Z,53.21
2018-05-04T19:44:44.323Z,53.79
2018-05-04T19:47:12.073Z,54.86
2018-05-04T19:49:39.604Z,55.37
2018-05-04T19:52:07.127Z,55.48
2018-05-04T19:54:34.692Z,56.07
2018-05-04T19:57:02.213Z,56.03
2018-05-04T19:59:29.931Z,56.30
2018-05-04T20:01:57.468Z,56.36
2018-05-04T20:04:25.016Z,56.35
2018-05-04T20:06:52.562Z,56.41
2018-05-04T20:09:20.095Z,56.99
2018-05-04T20:11:47.646Z,56.57
2018-05-04T20:14:15.178Z,56.08
2018-05-04T20:16:42.743Z,56.28
2018-05-04T20:19:10.294Z,56.16
2018-05-04T20:21:37.838Z,55.94
2018-05-04T20:24:05.394Z,56.10
2018-05-04T20:26:32.932Z,56.04
2018-05-04T20:29:00.577Z,56.11
2018-05-04T20:31:28.066Z,56.02
2018-05-04T20:33:55.604Z,55.83
2018-05-04T20:36:23.301Z,55.96
2018-05-04T20:38:50.862Z,56.12
2018-05-04T20:41:18.428Z,56.21
2018-05-04T20:43:45.980Z,56.10
2018-05-04T20:46:13.505Z,56.08
2018-05-04T20:48:41.051Z,56.23
2018-05-04T20:51:08.774Z,56.24
2018-05-04T20:53:36.376Z,56.55
2018-05-04T20:56:03.920Z,56.67
2018-05-04T20:58:31.508Z,56.86
2018-05-04T21:00:59.360Z,56.97
2018-05-04T21:03:26.879Z,57.28
2018-05-04T21:05:54.407Z,57.39
2018-05-04T21:08:21.950Z,57.25
2018-05-04T21:10:49.475Z,57.20
2018-05-04T21:13:17.024Z,56.79
2018-05-04T21:15:44.548Z,56.55
2018-05-04T21:18:12.131Z,56.72
2018-05-04T21:20:39.650Z,56.63
2018-05-04T21:23:07.166Z,56.44
2018-05-04T21:25:34.735Z,56.23
2018-05-04T21:28:02.265Z,55.87
2018-05-04T21:30:29.826Z,55.82
2018-05-04T21:32:57.364Z,55.85
2018-05-04T21:35:24.919Z,55.75
2018-05-04T21:37:52.465Z,55.84
2018-05-04T21:40:20.042Z,55.88
2018-05-04T21:42:47.577Z,56.17
2018-05-04T21:45:15.109Z,56.26
2018-05-04T21:47:42.667Z,56.05
2018-05-04T21:50:10.203Z,55.95
2018-05-04T21:52:37.774Z,55.87
2018-05-04T21:55:05.299Z,55.96
2018-05-04T21:57:32.823Z,56.14
2018-05-04T22:00:00.380Z,56.01
2018-05-04T22:02:27.907Z,56.39
2018-05-04T22:04:55.470Z,56.25
2018-05-04T22:07:23.019Z,56.35
2018-05-04T22:09:50.699Z,56.19
2018-05-04T22:12:18.213Z,55.97
2018-05-04T22:14:45.762Z,56.14
2018-05-04T22:17:13.326Z,56.24
2018-05-04T22:19:40.852Z,56.27
2018-05-04T22:22:08.416Z,56.02
2018-05-04T22:24:35.949Z,55.94
2018-05-04T22:27:03.520Z,56.06
2018-05-04T22:29:31.052Z,55.54
2018-05-04T22:31:58.570Z,55.42
2018-05-04T22:34:26.217Z,55.29
2018-05-04T22:36:53.737Z,55.27
2018-05-04T22:39:21.259Z,55.51
2018-05-04T22:41:48.807Z,55.43
2018-05-04T22:44:16.375Z,55.64
2018-05-04T22:46:43.920Z,55.53
2018-05-04T22:49:11.441Z,55.67
2018-05-04T22:51:38.991Z,55.33
2018-05-04T22:54:06.515Z,55.72
2018-05-04T22:56:34.366Z,55.95
2018-05-04T22:59:01.877Z,55.95
2018-05-04T23:01:29.413Z,56.27
2018-05-04T23:03:57.112Z,55.92
2018-05-04T23:06:24.650Z,56.46
2018-05-04T23:08:52.254Z,56.22
2018-05-04T23:11:19.802Z,56.09
2018-05-04T23:13:47.373Z,56.45
2018-05-04T23:16:14.900Z,56.38
2018-05-04T23:18:42.427Z,56.55
2018-05-04T23:21:09.966Z,56.43
2018-05-04T23:23:37.496Z,56.64
2018-05-04T23:26:05.091Z,56.80
2018-05-04T23:28:32.627Z,56.75
2018-05-04T23:31:00.167Z,56.95
2018-05-04T23:33:27.723Z,57.16
2018-05-04T23:35:55.253Z,57.40
2018-05-04T23:38:22.923Z,57.36
2018-05-04T23:40:50.449Z,57.69
2018-05-04T23:43:17.972Z,57.69
2018-05-04T23:45:45.528Z,57.39
2018-05-04T23:48:13.080Z,57.50
2018-05-04T23:50:40.608Z,57.78
2018-05-04T23:53:08.275Z,57.36
2018-05-04T23:55:35.919Z,57.71
2018-05-04T23:58:03.464Z,57.50
